Calumet, MI (49913)

2:55 AM EDT on August 03, 2015 (GMT -0400)
MesoWest | | Change Station
CLOSE
Current Station
Personal Weather Station
Location: Laurium, MI
Elevation: 1170 ft
Nearby Weather Stations

Elev 1170 ft 47.22 °N, 88.46 °W | Updated 35 minutes ago

Overcast
Overcast
58 °F
Feels Like 58 °F
N
6
Wind Variable Wind from WNW
Gusts 17.0 mph

Today
High -- | Low -- °F
--% Chance of Precip.
Yesterday
High -- | Low -- °F
Precip. -- in
6:33 AM 9:24 PM
Waning Gibbous, 89% visible
Pressure 29.68 in
Visibility 10.0 miles
Clouds Mostly Cloudy 8500 ft
Dew Point 51 °F
Humidity 78%
Rainfall in
Snow Depth Not available.
UV 0 out of 12
Pollen 3.50 out of 12
Air Quality Not available.
Flu Activity Not available.
METAR KCMX 030653Z AUTO 32011KT 10SM BKN085 14/10 A2968 RMK AO2 SLP048 T01440100 TSNO $

More Conditions Fewer Conditions

Pressure 29.68 in
Visibility 10.0 miles
Clouds Mostly Cloudy 8500 ft
Dew Point 51 °F
Humidity 78%
Rainfall in
Snow Depth Not available.
UV 0 out of 12
Pollen 3.50 out of 12
Air Quality Not available.
Flu Activity Not available.
METAR KCMX 030653Z AUTO 32011KT 10SM BKN085 14/10 A2968 RMK AO2 SLP048 T01440100 TSNO $

More Conditions Fewer Conditions

10-Day Weather Forecast

×

Almanac

Astronomy

Aug. 03, 2015 Rise Set
Actual Time
Civil Twilight
Nautical Twilight
Astronomical Twilight
Moon
Length of Visible Light
Length of Day
Tomorrow will be .
, % of the Moon is Illuminated

Today's Extremes

State Highs State Lows

Community

WunderPhotos

Upload Photos

1,843,595 photos uploaded!

WunderBlogs® & News

Nearby

Air Quality

  Air Quality AQ Index Pollutant
Not available.

Snow Depth

Station Depth Elevation

Earthquake Activity

City Distance Mag. Time & Date
Minimum magnitude displayed is 2.5.

Coastal Water Temperatures

Place Temperature

Stations

Nearby Weather Stations

Station Location Temp. Windchill Dew Point Humidity Wind Precip. Elev Updated Type